createdAt,value
2023-08-13T05:25:57.027Z,101371.38
2023-08-13T05:31:04.375Z,101379.44
2023-08-13T05:36:07.947Z,101389.66
2023-08-13T05:41:10.738Z,101386.84
2023-08-13T05:46:13.556Z,101381.56
2023-08-13T05:51:17.146Z,101382.28
2023-08-13T05:56:19.800Z,101387.44
2023-08-13T06:01:22.448Z,101396.78
2023-08-13T06:06:25.165Z,101392.94
2023-08-13T06:11:27.814Z,101395.03
2023-08-13T06:16:30.623Z,101394.56
2023-08-13T06:21:33.339Z,101396.66
2023-08-13T06:26:36.654Z,101401.59
2023-08-13T06:31:43.343Z,101418.16
2023-08-13T06:36:46.323Z,101414.13
2023-08-13T06:41:48.973Z,101427.00
2023-08-13T06:46:53.959Z,101424.09
2023-08-13T06:51:56.771Z,101424.75
2023-08-13T06:56:59.649Z,101420.47
2023-08-13T07:02:02.408Z,101429.44
2023-08-13T07:07:05.300Z,101429.56
2023-08-13T07:12:08.101Z,101440.69
2023-08-13T07:17:10.702Z,101431.09
2023-08-13T07:22:14.634Z,101432.13
2023-08-13T07:27:17.871Z,101438.66
2023-08-13T07:32:20.919Z,101430.94
2023-08-13T07:37:25.163Z,101436.34
2023-08-13T07:42:28.891Z,101443.16
2023-08-13T07:47:31.545Z,101441.97
2023-08-13T07:52:35.565Z,101454.72
2023-08-13T07:57:38.233Z,101456.97
2023-08-13T08:02:41.394Z,101457.28
2023-08-13T08:07:44.043Z,101463.69
2023-08-13T08:12:46.759Z,101454.09
2023-08-13T08:17:49.618Z,101446.41
2023-08-13T08:22:52.922Z,101446.75
2023-08-13T08:27:55.567Z,101437.44
2023-08-13T08:32:58.321Z,101441.25
2023-08-13T08:38:01.216Z,101437.84
2023-08-13T08:43:04.032Z,101434.34
2023-08-13T08:48:08.112Z,101426.31
2023-08-13T08:53:11.603Z,101429.75
2023-08-13T08:58:14.300Z,101432.94
2023-08-13T09:03:17.702Z,101434.34
2023-08-13T09:08:20.527Z,101426.19
2023-08-13T09:13:23.539Z,101413.50
2023-08-13T09:18:26.341Z,101420.53
2023-08-13T09:23:28.987Z,101420.63
2023-08-13T09:28:31.668Z,101419.03
2023-08-13T09:33:34.376Z,101413.75
2023-08-13T09:38:37.298Z,101413.88
2023-08-13T09:43:40.980Z,101403.13
2023-08-13T09:48:44.860Z,101404.69
2023-08-13T09:53:53.973Z,101398.81
2023-08-13T09:58:56.985Z,101401.34
2023-08-13T10:04:01.122Z,101390.69
2023-08-13T10:09:03.965Z,101395.47
2023-08-13T10:14:06.633Z,101400.75
2023-08-13T10:19:10.101Z,101389.34
2023-08-13T10:24:13.517Z,101396.66
2023-08-13T10:29:20.406Z,101394.03
2023-08-13T10:34:42.174Z,101393.72
2023-08-13T10:39:46.877Z,101399.66
2023-08-13T10:44:49.542Z,101401.53
2023-08-13T10:49:52.234Z,101397.06
2023-08-13T10:54:59.042Z,101394.38
2023-08-13T11:00:03.971Z,101401.53
2023-08-13T11:05:07.651Z,101393.00
2023-08-13T11:10:17.358Z,101401.66
2023-08-13T11:15:20.057Z,101398.41
2023-08-13T11:20:22.968Z,101409.84
2023-08-13T11:25:27.804Z,101391.34
2023-08-13T11:30:30.504Z,101392.28
2023-08-13T11:35:34.104Z,101395.78
2023-08-13T11:40:38.681Z,101386.09
2023-08-13T11:45:42.740Z,101381.38
2023-08-13T11:50:56.273Z,101385.00
2023-08-13T11:56:04.918Z,101385.19
2023-08-13T12:01:07.922Z,101391.41
2023-08-13T12:06:12.592Z,101387.84
2023-08-13T12:11:15.969Z,101384.41
2023-08-13T12:16:18.566Z,101372.16
2023-08-13T12:21:21.249Z,101367.31
2023-08-13T12:26:23.986Z,101364.44
2023-08-13T12:31:27.984Z,101361.97
2023-08-13T12:36:30.755Z,101363.06
2023-08-13T12:41:39.913Z,101344.63
2023-08-13T12:46:43.088Z,101344.81
2023-08-13T12:51:45.775Z,101333.47
2023-08-13T12:56:48.513Z,101346.63
2023-08-13T13:01:51.176Z,101336.09
2023-08-13T13:06:53.842Z,101327.28
2023-08-13T13:11:56.497Z,101324.63
2023-08-13T13:16:59.367Z,101319.38
2023-08-13T13:22:02.608Z,101317.47
2023-08-13T13:27:05.734Z,101311.88
2023-08-13T13:32:08.471Z,101316.84
2023-08-13T13:37:11.555Z,101321.81
2023-08-13T13:42:14.456Z,101317.38
2023-08-13T13:47:17.425Z,101313.03
2023-08-13T13:52:20.424Z,101312.91
2023-08-13T13:57:25.163Z,101305.97
2023-08-13T14:02:27.956Z,101312.16
2023-08-13T14:07:30.965Z,101300.69
2023-08-13T14:12:33.756Z,101310.56
2023-08-13T14:17:36.447Z,101300.13
2023-08-13T14:22:39.097Z,101297.56
2023-08-13T14:27:41.719Z,101293.44
2023-08-13T14:32:45.245Z,101292.66
2023-08-13T14:37:47.918Z,101282.25
2023-08-13T14:42:50.545Z,101279.69
2023-08-13T14:47:53.236Z,101286.78
2023-08-13T14:52:55.948Z,101282.41
2023-08-13T14:57:58.623Z,101281.53
2023-08-13T15:03:01.474Z,101282.38
2023-08-13T15:08:04.519Z,101270.97
2023-08-13T15:13:07.280Z,101274.41
2023-08-13T15:18:10.054Z,101270.09
2023-08-13T15:23:12.817Z,101271.81
2023-08-13T15:28:15.701Z,101260.44
2023-08-13T15:33:18.352Z,101252.59
2023-08-13T15:38:23.082Z,101250.84
2023-08-13T15:43:26.130Z,101250.91
2023-08-13T15:48:29.409Z,101251.78
2023-08-13T15:53:32.187Z,101257.09
2023-08-13T15:58:37.246Z,101250.13
2023-08-13T16:03:41.442Z,101248.38
2023-08-13T16:08:45.199Z,101242.22
2023-08-13T16:13:47.855Z,101237.88
2023-08-13T16:18:50.515Z,101245.72
2023-08-13T16:24:04.693Z,101247.47
2023-08-13T16:29:15.629Z,101247.41
2023-08-13T16:34:18.307Z,101229.84
2023-08-13T16:39:20.936Z,101233.34
2023-08-13T16:44:24.458Z,101224.56
2023-08-13T16:49:27.454Z,101237.69
2023-08-13T16:54:30.103Z,101237.66
2023-08-13T16:59:32.823Z,101233.22
2023-08-13T17:04:35.487Z,101222.66
2023-08-13T17:09:38.132Z,101220.84
2023-08-13T17:14:40.776Z,101225.09
2023-08-13T17:19:43.438Z,101212.84
2023-08-13T17:24:46.113Z,101214.44
2023-08-13T17:29:48.831Z,101207.22
2023-08-13T17:34:51.534Z,101215.81
2023-08-13T17:39:54.238Z,101213.84
2023-08-13T17:44:57.044Z,101218.84
2023-08-13T17:49:59.766Z,101215.28
2023-08-13T17:55:02.479Z,101217.00
2023-08-13T18:00:06.814Z,101222.09
2023-08-13T18:05:18.359Z,101233.13
2023-08-13T18:10:21.195Z,101228.66
2023-08-13T18:15:24.484Z,101241.09
2023-08-13T18:20:27.418Z,101237.16
2023-08-13T18:25:30.203Z,101243.81
2023-08-13T18:30:32.943Z,101239.34
2023-08-13T18:35:35.679Z,101241.72
2023-08-13T18:40:38.431Z,101241.31
2023-08-13T18:45:41.160Z,101247.25
2023-08-13T18:50:43.892Z,101244.13
2023-08-13T18:55:48.686Z,101241.94
2023-08-13T19:00:51.592Z,101253.16
2023-08-13T19:05:54.342Z,101256.34
2023-08-13T19:10:59.607Z,101260.47
2023-08-13T19:16:02.336Z,101256.78
2023-08-13T19:21:05.119Z,101265.88
2023-08-13T19:26:07.841Z,101268.28
2023-08-13T19:31:10.624Z,101275.97
2023-08-13T19:36:14.242Z,101275.91
2023-08-13T19:41:16.935Z,101271.47
2023-08-13T19:46:19.730Z,101271.78
2023-08-13T19:51:22.472Z,101274.47
2023-08-13T19:56:26.415Z,101274.28
2023-08-13T20:01:29.129Z,101276.66
2023-08-13T20:06:31.892Z,101271.03
2023-08-13T20:11:34.840Z,101273.34
2023-08-13T20:16:38.971Z,101265.38
2023-08-13T20:21:49.081Z,101257.44
2023-08-13T20:26:52.087Z,101253.16
2023-08-13T20:31:54.803Z,101256.06
2023-08-13T20:36:58.034Z,101243.50
2023-08-13T20:42:01.048Z,101245.28
2023-08-13T20:47:03.873Z,101244.94
2023-08-13T20:52:06.746Z,101242.13
2023-08-13T20:57:09.406Z,101242.66
2023-08-13T21:02:12.183Z,101243.19
2023-08-13T21:07:14.862Z,101236.13
2023-08-13T21:12:17.890Z,101229.06
2023-08-13T21:17:20.779Z,101238.44
2023-08-13T21:22:23.494Z,101230.22
2023-08-13T21:27:26.211Z,101238.56
2023-08-13T21:32:28.852Z,101231.56
2023-08-13T21:37:33.008Z,101237.63
2023-08-13T21:42:35.791Z,101230.16
2023-08-13T21:47:38.634Z,101225.78
2023-08-13T21:52:41.319Z,101222.72
2023-08-13T21:57:44.008Z,101231.38
